Amsterdam, Netherlands

3:14 PM CET on February 14, 2016 (GMT +0100)
Aalsmeerderbrug | | Change Station
CLOSE
Current Station
Personal Weather Station
Location: Aalsmeerderbrug, NOORD-HOLLAND
Elevation: -3 ft
Nearby Weather Stations

Elev -3 ft 52.27 °N, 4.75 °E | Updated 14 minutes ago

Heavy Drizzle
Heavy Drizzle
36.0 °F
Feels Like 36 °F
N
2.2
Wind Variable Wind from NNE
Gusts 5.4 mph

Today
High -- | Low -- °F
--% Chance of Precip.
Yesterday
High -- | Low -- °F
Precip. -- in
Pressure 29.33 in
Visibility 5.0 miles
Clouds Few 800 ft
Mostly Cloudy 900 ft
Mostly Cloudy 1100 ft
Windchill 36 °F
Dew Point 33 °F
Humidity 88%
Rainfall 0.13 in
Snow Depth Not available.
7:59 AM 5:51 PM
Waxing Crescent, 42% visible
SPECI EHKD 141357Z AUTO 05019KT 010V070 8000 +DZ FEW008 BKN009 BKN011 03/02 Q0993 GRN 05015G25KT 8000 BKN012 TEMPO 5000 -RADZ SCT008 BKN010
Pressure 29.33 in
Visibility 5.0 miles
Clouds Few 800 ft
Mostly Cloudy 900 ft
Mostly Cloudy 1100 ft
Windchill 36 °F
Dew Point 33 °F
Humidity 88%
Rainfall 0.13 in
Snow Depth Not available.
7:59 AM 5:51 PM
Waxing Crescent, 42% visible
SPECI EHKD 141357Z AUTO 05019KT 010V070 8000 +DZ FEW008 BKN009 BKN011 03/02 Q0993 GRN 05015G25KT 8000 BKN012 TEMPO 5000 -RADZ SCT008 BKN010

10-Day Weather Forecast

Almanac

Astronomy

Feb. 14, 2016 Rise Set
Actual Time
Civil Twilight
Nautical Twilight
Astronomical Twilight
Moon
Length of Visible Light
Length of Day
Tomorrow will be .
, % of the Moon is Illuminated

Today's Extremes

Country Highs Country Lows

Community

WunderPhotos

Upload Photos

1,892,797 photos uploaded!

WunderBlog® & News

Nearby

Air Quality

  Air Quality AQ Index Pollutant
Not available.

Snow Depth

Station Depth Elevation

Earthquake Activity

City Distance Mag. Time & Date
Minimum magnitude displayed is 2.5.

Coastal Water Temperatures

Place Temperature

Stations

Nearby Weather Stations

Station Location Temp. Windchill Dew Point Humidity Wind Precip. Elev Updated Type